Time,TemperatureF,DewpointF,PressureIn,WindDirection,WindDirectionDegrees,WindSpeedMPH,WindSpeedGustMPH,Humidity,HourlyPrecipIn,Conditions,Clouds,dailyrainin,SoftwareType,DateUTC
2013-01-17 00:03:00,33.8,33.0,29.56,North,351,6.3,6.3,97,0.00,,---,0.00,VWS V14.01,2013-01-16 23:03:00,
2013-01-17 00:08:00,33.6,32.9,29.56,North,351,4.9,5.8,97,0.00,,---,0.00,VWS V14.01,2013-01-16 23:08:00,
2013-01-17 00:13:00,33.6,32.9,29.56,NNW,341,6.7,6.7,97,0.00,,---,0.00,VWS V14.01,2013-01-16 23:13:00,
2013-01-17 00:18:00,33.6,32.9,29.56,NNW,333,6.3,6.3,97,0.00,,---,0.00,VWS V14.01,2013-01-16 23:18:00,
2013-01-17 00:23:00,33.4,32.7,29.56,NNW,337,3.1,6.7,97,0.00,,---,0.00,VWS V14.01,2013-01-16 23:23:00,
2013-01-17 00:28:00,33.4,32.7,29.56,NNW,341,5.4,5.8,97,0.00,,---,0.00,VWS V14.01,2013-01-16 23:28:00,
2013-01-17 00:33:00,33.4,32.7,29.56,NNW,343,4.0,6.3,97,0.00,,---,0.00,VWS V14.01,2013-01-16 23:33:00,
2013-01-17 00:38:00,33.4,32.7,29.56,NNW,339,4.0,4.9,97,0.00,,---,0.00,VWS V14.01,2013-01-16 23:38:00,
2013-01-17 00:43:00,33.4,32.7,29.56,NNW,342,4.5,5.8,97,0.00,,---,0.00,VWS V14.01,2013-01-16 23:43:00,
2013-01-17 00:48:00,33.4,32.7,29.56,North,351,5.8,5.8,97,0.00,,---,0.00,VWS V14.01,2013-01-16 23:48:00,
2013-01-17 00:53:00,33.4,32.7,29.56,NNW,337,3.6,5.4,97,0.00,,---,0.00,VWS V14.01,2013-01-16 23:53:00,
2013-01-17 00:58:00,33.4,32.7,29.56,NW,313,5.8,7.8,97,0.00,,---,0.00,VWS V14.01,2013-01-16 23:58:00,
2013-01-17 01:03:00,33.4,32.7,29.56,NNW,335,4.5,4.9,97,0.00,,---,0.00,VWS V14.01,2013-01-17 00:03:00,
2013-01-17 01:08:00,33.6,32.9,29.56,WNW,302,3.6,4.5,97,0.00,,---,0.00,VWS V14.01,2013-01-17 00:08:00,
2013-01-17 01:13:00,33.6,32.9,29.56,NNW,335,3.6,4.0,97,0.00,,---,0.00,VWS V14.01,2013-01-17 00:13:00,
2013-01-17 01:18:00,33.6,32.9,29.56,NW,320,5.8,6.3,97,0.00,,---,0.00,VWS V14.01,2013-01-17 00:18:00,
2013-01-17 01:23:00,33.6,32.9,29.56,WNW,294,5.8,7.8,97,0.00,,---,0.00,VWS V14.01,2013-01-17 00:23:00,
2013-01-17 01:28:00,33.6,32.9,29.56,North,356,7.4,7.4,97,0.00,,---,0.00,VWS V14.01,2013-01-17 00:28:00,
2013-01-17 01:33:00,33.6,32.9,29.56,WNW,295,4.5,5.4,97,0.00,,---,0.00,VWS V14.01,2013-01-17 00:33:00,
2013-01-17 01:38:00,33.6,32.9,29.56,WNW,284,3.6,6.7,97,0.00,,---,0.00,VWS V14.01,2013-01-17 00:38:00,
2013-01-17 01:43:00,33.8,33.0,29.56,NNW,338,4.9,6.9,97,0.00,,---,0.00,VWS V14.01,2013-01-17 00:43:00,
2013-01-17 01:48:00,34.0,33.2,29.56,WNW,286,5.4,5.8,97,0.00,,---,0.00,VWS V14.01,2013-01-17 00:48:00,
2013-01-17 01:53:00,34.0,33.2,29.56,NW,318,5.8,6.7,97,0.00,,---,0.00,VWS V14.01,2013-01-17 00:53:00,
2013-01-17 01:58:00,34.0,33.2,29.56,NW,304,4.9,5.8,97,0.00,,---,0.00,VWS V14.01,2013-01-17 00:58:00,
2013-01-17 02:03:00,34.2,33.4,29.56,NNW,344,4.9,6.7,97,0.00,,---,0.00,VWS V14.01,2013-01-17 01:03:00,
2013-01-17 02:08:00,34.2,33.4,29.53,West,278,5.4,7.8,97,0.00,,---,0.00,VWS V14.01,2013-01-17 01:08:00,
2013-01-17 02:13:00,34.3,33.6,29.53,NW,310,5.4,6.3,97,0.00,,---,0.00,VWS V14.01,2013-01-17 01:13:00,
2013-01-17 02:18:00,34.3,33.6,29.53,NNW,340,3.6,6.7,97,0.00,,---,0.00,VWS V14.01,2013-01-17 01:18:00,
2013-01-17 02:23:00,34.3,33.6,29.53,WNW,300,5.8,5.8,97,0.00,,---,0.00,VWS V14.01,2013-01-17 01:23:00,
2013-01-17 02:28:00,34.3,33.6,29.53,NNW,343,5.8,5.8,97,0.00,,---,0.00,VWS V14.01,2013-01-17 01:28:00,
2013-01-17 02:33:00,34.3,33.6,29.53,NNW,336,3.1,5.8,97,0.00,,---,0.00,VWS V14.01,2013-01-17 01:33:00,
2013-01-17 02:38:00,34.2,33.4,29.53,NNW,327,4.9,5.4,97,0.00,,---,0.00,VWS V14.01,2013-01-17 01:38:00,
2013-01-17 02:43:00,34.2,33.4,29.53,North,351,4.0,4.0,97,0.00,,---,0.00,VWS V14.01,2013-01-17 01:43:00,
2013-01-17 02:48:00,34.0,33.2,29.53,NNW,331,4.9,4.9,97,0.00,,---,0.00,VWS V14.01,2013-01-17 01:48:00,
2013-01-17 02:53:00,34.0,33.2,29.53,NNW,340,2.7,4.0,97,0.00,,---,0.00,VWS V14.01,2013-01-17 01:53:00,
2013-01-17 02:58:00,34.0,33.2,29.53,NNW,344,3.6,3.6,97,0.00,,---,0.00,VWS V14.01,2013-01-17 01:58:00,
2013-01-17 03:03:00,34.0,33.2,29.53,NNW,337,4.0,5.4,97,0.00,,---,0.00,VWS V14.01,2013-01-17 02:03:00,
2013-01-17 03:08:00,34.0,33.2,29.53,NNW,339,5.4,6.7,97,0.00,,---,0.00,VWS V14.01,2013-01-17 02:08:00,
2013-01-17 03:13:00,33.8,33.0,29.53,NNW,337,4.0,5.4,97,0.00,,---,0.00,VWS V14.01,2013-01-17 02:13:00,
2013-01-17 03:18:00,33.8,33.0,29.53,NW,323,4.0,4.5,97,0.00,,---,0.00,VWS V14.01,2013-01-17 02:18:00,
2013-01-17 03:23:00,34.0,33.2,29.53,NW,324,0.0,4.9,97,0.00,,---,0.00,VWS V14.01,2013-01-17 02:23:00,
2013-01-17 03:28:00,34.0,33.2,29.53,NW,324,0.0,2.7,97,0.00,,---,0.00,VWS V14.01,2013-01-17 02:28:00,
2013-01-17 03:33:00,34.0,33.2,29.53,NW,324,2.7,3.6,97,0.00,,---,0.00,VWS V14.01,2013-01-17 02:33:00,
2013-01-17 03:38:00,33.8,33.0,29.53,NNW,332,0.0,3.6,97,0.00,,---,0.00,VWS V14.01,2013-01-17 02:38:00,
2013-01-17 03:43:00,33.8,33.0,29.53,North,351,0.0,3.6,97,0.00,,---,0.00,VWS V14.01,2013-01-17 02:43:00,
2013-01-17 03:48:00,33.8,33.0,29.53,North,351,3.6,4.0,97,0.00,,---,0.00,VWS V14.01,2013-01-17 02:48:00,
2013-01-17 03:53:00,33.8,33.0,29.53,NNW,345,4.9,6.7,97,0.00,,---,0.00,VWS V14.01,2013-01-17 02:53:00,
2013-01-17 03:58:00,33.8,33.0,29.53,NW,320,4.5,4.5,97,0.00,,---,0.00,VWS V14.01,2013-01-17 02:58:00,
2013-01-17 04:04:00,34.0,33.2,29.53,West,270,0.0,0.0,97,0.00,,---,0.00,VWS V14.01,2013-01-17 03:04:00,
2013-01-17 04:08:00,34.0,33.2,29.53,SE,139,0.0,0.0,97,0.00,,---,0.00,VWS V14.01,2013-01-17 03:08:00,
2013-01-17 04:14:00,33.8,33.0,29.53,SE,139,0.0,4.0,97,0.00,,---,0.00,VWS V14.01,2013-01-17 03:14:00,
2013-01-17 04:19:00,33.8,33.0,29.53,SE,139,0.0,0.0,97,0.00,,---,0.00,VWS V14.01,2013-01-17 03:19:00,
2013-01-17 04:24:00,34.0,33.2,29.53,SE,139,0.0,3.1,97,0.00,,---,0.00,VWS V14.01,2013-01-17 03:24:00,
2013-01-17 04:29:00,34.0,33.2,29.53,SE,139,3.1,3.6,97,0.00,,---,0.00,VWS V14.01,2013-01-17 03:29:00,
2013-01-17 04:34:00,34.0,33.2,29.53,SE,139,0.0,0.0,97,0.00,,---,0.00,VWS V14.01,2013-01-17 03:34:00,
2013-01-17 04:39:00,34.0,33.2,29.53,SE,139,2.7,3.1,97,0.00,,---,0.00,VWS V14.01,2013-01-17 03:39:00,
2013-01-17 04:44:00,34.0,33.2,29.53,SE,139,3.6,3.6,97,0.00,,---,0.00,VWS V14.01,2013-01-17 03:44:00,
2013-01-17 04:49:00,34.0,33.2,29.53,SE,139,0.0,3.1,97,0.00,,---,0.00,VWS V14.01,2013-01-17 03:49:00,
2013-01-17 04:54:00,34.0,33.2,29.53,SE,139,4.9,4.9,97,0.00,,---,0.00,VWS V14.01,2013-01-17 03:54:00,
2013-01-17 04:59:00,34.0,33.2,29.53,SE,139,4.0,4.5,97,0.00,,---,0.00,VWS V14.01,2013-01-17 03:59:00,
2013-01-17 05:04:00,34.0,33.2,29.53,NNW,345,4.5,5.4,97,0.00,,---,0.00,VWS V14.01,2013-01-17 04:04:00,
2013-01-17 05:09:00,34.0,33.2,29.53,North,351,4.5,4.9,97,0.00,,---,0.00,VWS V14.01,2013-01-17 04:09:00,
2013-01-17 05:14:00,34.0,33.2,29.53,North,351,3.1,5.4,97,0.00,,---,0.00,VWS V14.01,2013-01-17 04:14:00,
2013-01-17 05:19:00,34.2,33.4,29.53,NNW,343,4.0,4.9,97,0.00,,---,0.00,VWS V14.01,2013-01-17 04:19:00,
2013-01-17 05:24:00,34.2,33.4,29.53,NNE,15,4.5,4.5,97,0.00,,---,0.00,VWS V14.01,2013-01-17 04:24:00,
2013-01-17 05:29:00,34.2,33.4,29.53,NNW,334,3.6,5.4,97,0.00,,---,0.00,VWS V14.01,2013-01-17 04:29:00,
2013-01-17 05:34:00,34.2,33.4,29.53,NNW,339,3.1,4.9,97,0.00,,---,0.00,VWS V14.01,2013-01-17 04:34:00,
2013-01-17 05:39:00,34.2,33.4,29.53,NNW,331,5.4,5.4,97,0.00,,---,0.00,VWS V14.01,2013-01-17 04:39:00,
2013-01-17 05:44:00,34.2,33.4,29.53,NW,318,2.7,4.0,97,0.00,,---,0.00,VWS V14.01,2013-01-17 04:44:00,
2013-01-17 05:49:00,34.3,33.6,29.53,NNW,329,4.9,4.9,97,0.00,,---,0.00,VWS V14.01,2013-01-17 04:49:00,
2013-01-17 05:54:00,34.3,33.6,29.53,NW,325,0.0,2.7,97,0.00,,---,0.00,VWS V14.01,2013-01-17 04:54:00,
2013-01-17 05:59:00,34.3,33.6,29.53,NW,325,0.0,0.0,97,0.00,,---,0.00,VWS V14.01,2013-01-17 04:59:00,
2013-01-17 06:00:00,34.3,33.6,29.53,NW,325,0.0,0.0,97,0.00,,---,0.00,VWS V14.01,2013-01-17 05:00:00,
2013-01-17 06:01:00,34.3,33.6,29.53,NW,325,0.0,0.0,97,0.00,,---,0.00,VWS V14.01,2013-01-17 05:01:00,
2013-01-17 06:02:00,34.3,33.6,29.53,NW,325,3.1,3.6,97,0.00,,---,0.00,VWS V14.01,2013-01-17 05:02:00,
2013-01-17 06:07:00,34.3,33.6,29.53,NW,325,0.0,3.1,97,0.00,,---,0.00,VWS V14.01,2013-01-17 05:07:00,
2013-01-17 06:12:00,34.5,33.8,29.53,NW,325,2.7,3.1,97,0.00,,---,0.00,VWS V14.01,2013-01-17 05:12:00,
2013-01-17 06:17:00,34.5,33.8,29.53,NW,325,0.0,0.0,97,0.00,,---,0.00,VWS V14.01,2013-01-17 05:17:00,
2013-01-17 06:22:00,34.3,33.6,29.53,NW,325,3.1,3.1,97,0.00,,---,0.00,VWS V14.01,2013-01-17 05:22:00,
2013-01-17 06:27:00,34.5,33.8,29.53,NNW,331,4.9,6.3,97,0.00,,---,0.00,VWS V14.01,2013-01-17 05:27:00,
2013-01-17 06:32:00,34.5,33.8,29.53,NW,313,5.4,6.7,97,0.00,,---,0.00,VWS V14.01,2013-01-17 05:32:00,
2013-01-17 06:37:00,34.5,33.8,29.53,North,351,5.8,5.8,97,0.00,,---,0.00,VWS V14.01,2013-01-17 05:37:00,
2013-01-17 06:42:00,34.5,33.8,29.53,North,351,6.3,6.7,97,0.00,,---,0.00,VWS V14.01,2013-01-17 05:42:00,
2013-01-17 06:47:00,34.5,33.8,29.53,NNW,336,4.9,5.4,97,0.00,,---,0.00,VWS V14.01,2013-01-17 05:47:00,
2013-01-17 06:52:00,34.5,33.8,29.53,NNW,343,4.0,4.0,97,0.00,,---,0.00,VWS V14.01,2013-01-17 05:52:00,
2013-01-17 06:57:00,34.5,33.8,29.53,NNW,330,4.0,4.9,97,0.00,,---,0.00,VWS V14.01,2013-01-17 05:57:00,
2013-01-17 07:02:00,34.5,33.8,29.53,NNW,337,4.0,4.0,97,0.00,,---,0.00,VWS V14.01,2013-01-17 06:02:00,
2013-01-17 07:07:00,34.5,33.8,29.53,NNW,341,4.9,4.9,97,0.00,,---,0.00,VWS V14.01,2013-01-17 06:07:00,
2013-01-17 07:12:00,34.5,33.8,29.53,North,351,4.9,4.9,97,0.00,,---,0.00,VWS V14.01,2013-01-17 06:12:00,
2013-01-17 07:17:00,34.5,33.8,29.53,North,8,5.4,5.8,97,0.00,,---,0.00,VWS V14.01,2013-01-17 06:17:00,
2013-01-17 07:22:00,34.7,33.9,29.53,NNW,341,3.1,3.1,97,0.00,,---,0.00,VWS V14.01,2013-01-17 06:22:00,
2013-01-17 07:27:00,34.7,33.9,29.53,NNW,341,0.0,2.7,97,0.00,,---,0.00,VWS V14.01,2013-01-17 06:27:00,
2013-01-17 07:32:00,34.9,34.1,29.53,NNW,341,0.0,2.7,97,0.00,,---,0.00,VWS V14.01,2013-01-17 06:32:00,
2013-01-17 07:37:00,34.9,34.1,29.56,NNW,341,3.6,3.6,97,0.00,,---,0.00,VWS V14.01,2013-01-17 06:37:00,
2013-01-17 07:42:00,34.9,34.1,29.56,NNW,341,0.0,0.0,97,0.00,,---,0.00,VWS V14.01,2013-01-17 06:42:00,
2013-01-17 07:47:00,34.9,34.1,29.56,NNW,341,0.0,0.0,97,0.00,,---,0.00,VWS V14.01,2013-01-17 06:47:00,
2013-01-17 07:52:00,34.9,34.1,29.56,NNW,341,0.0,0.0,97,0.00,,---,0.00,VWS V14.01,2013-01-17 06:52:00,
2013-01-17 07:57:00,35.1,34.3,29.56,NNW,341,3.1,3.1,97,0.00,,---,0.00,VWS V14.01,2013-01-17 06:57:00,
2013-01-17 08:02:00,35.1,34.3,29.56,NNW,341,4.0,4.5,97,0.00,,---,0.00,VWS V14.01,2013-01-17 07:02:00,
2013-01-17 08:07:00,35.1,34.3,29.56,SSE,167,5.4,5.4,97,0.00,,---,0.00,VWS V14.01,2013-01-17 07:07:00,
2013-01-17 08:12:00,35.1,34.3,29.56,SSE,167,3.1,3.6,97,0.00,,---,0.00,VWS V14.01,2013-01-17 07:12:00,
2013-01-17 08:17:00,35.1,34.3,29.56,SSE,167,2.7,3.6,97,0.00,,---,0.00,VWS V14.01,2013-01-17 07:17:00,
2013-01-17 08:22:00,34.9,34.1,29.56,SSE,167,4.0,4.0,97,0.00,,---,0.00,VWS V14.01,2013-01-17 07:22:00,
2013-01-17 08:27:00,34.9,34.1,29.56,SSE,167,4.0,4.0,97,0.00,,---,0.00,VWS V14.01,2013-01-17 07:27:00,
2013-01-17 08:32:00,34.9,34.1,29.56,SSE,167,0.0,2.7,97,0.00,,---,0.00,VWS V14.01,2013-01-17 07:32:00,
2013-01-17 08:37:00,34.9,34.1,29.56,SSE,167,3.1,4.0,97,0.00,,---,0.00,VWS V14.01,2013-01-17 07:37:00,
2013-01-17 08:42:00,34.9,34.1,29.56,SSE,167,4.0,5.8,97,0.00,,---,0.00,VWS V14.01,2013-01-17 07:42:00,
2013-01-17 08:47:00,34.9,34.1,29.56,SSE,167,0.0,2.7,97,0.00,,---,0.00,VWS V14.01,2013-01-17 07:47:00,
2013-01-17 08:52:00,35.1,34.3,29.56,NNW,335,3.6,5.4,97,0.00,,---,0.00,VWS V14.01,2013-01-17 07:52:00,
2013-01-17 08:57:00,35.1,34.3,29.56,NNW,340,6.7,6.7,97,0.00,,---,0.00,VWS V14.01,2013-01-17 07:57:00,
2013-01-17 09:02:00,35.2,34.5,29.56,NNW,340,4.0,6.3,97,0.00,,---,0.00,VWS V14.01,2013-01-17 08:02:00,
2013-01-17 09:07:00,35.2,34.5,29.59,NNW,347,6.3,6.3,97,0.00,,---,0.00,VWS V14.01,2013-01-17 08:07:00,
2013-01-17 09:12:00,35.2,34.5,29.59,North,351,4.0,5.8,97,0.00,,---,0.00,VWS V14.01,2013-01-17 08:12:00,
2013-01-17 09:17:00,35.2,34.5,29.59,NNW,329,6.3,6.3,97,0.00,,---,0.00,VWS V14.01,2013-01-17 08:17:00,
2013-01-17 09:22:00,35.4,34.4,29.59,North,2,3.1,4.9,96,0.00,,---,0.00,VWS V14.01,2013-01-17 08:22:00,
2013-01-17 09:27:00,35.4,34.4,29.59,SSE,148,4.0,4.9,96,0.00,,---,0.00,VWS V14.01,2013-01-17 08:27:00,
2013-01-17 09:32:00,35.6,34.6,29.59,SSE,148,3.1,4.0,96,0.00,,---,0.00,VWS V14.01,2013-01-17 08:32:00,
2013-01-17 09:37:00,35.6,34.6,29.59,SSE,148,3.1,4.5,96,0.00,,---,0.00,VWS V14.01,2013-01-17 08:37:00,
2013-01-17 09:42:00,35.8,34.8,29.59,SSE,148,4.0,4.0,96,0.00,,---,0.00,VWS V14.01,2013-01-17 08:42:00,
2013-01-17 09:47:00,35.8,34.8,29.59,SSE,148,3.6,4.5,96,0.00,,---,0.00,VWS V14.01,2013-01-17 08:47:00,
2013-01-17 09:52:00,35.8,34.8,29.59,SSE,149,2.7,4.0,96,0.00,,---,0.00,VWS V14.01,2013-01-17 08:52:00,
2013-01-17 09:57:00,35.8,34.8,29.59,SSE,149,4.0,4.0,96,0.00,,---,0.00,VWS V14.01,2013-01-17 08:57:00,
2013-01-17 10:02:00,35.6,34.3,29.59,SSE,149,4.0,4.0,95,0.00,,---,0.00,VWS V14.01,2013-01-17 09:02:00,
2013-01-17 10:07:00,35.8,34.5,29.59,SSE,149,3.1,4.5,95,0.00,,---,0.00,VWS V14.01,2013-01-17 09:07:00,
2013-01-17 10:12:00,35.8,34.5,29.59,SSE,149,2.7,4.5,95,0.00,,---,0.00,VWS V14.01,2013-01-17 09:12:00,
2013-01-17 10:17:00,35.6,34.3,29.59,SSE,149,3.1,4.5,95,0.00,,---,0.00,VWS V14.01,2013-01-17 09:17:00,
2013-01-17 10:22:00,35.8,34.5,29.59,SSE,149,4.0,5.4,95,0.00,,---,0.00,VWS V14.01,2013-01-17 09:22:00,
2013-01-17 10:27:00,35.8,34.5,29.59,SSE,149,3.6,3.6,95,0.00,,---,0.00,VWS V14.01,2013-01-17 09:27:00,
2013-01-17 10:32:00,35.8,34.5,29.59,SSE,149,2.7,3.6,95,0.00,,---,0.00,VWS V14.01,2013-01-17 09:32:00,
2013-01-17 10:38:00,36.0,34.7,29.59,SSE,149,3.6,4.5,95,0.00,,---,0.00,VWS V14.01,2013-01-17 09:38:00,
2013-01-17 10:43:00,36.1,34.8,29.59,SSE,149,0.0,0.0,95,0.00,,---,0.00,VWS V14.01,2013-01-17 09:43:00,
2013-01-17 10:47:00,36.1,34.8,29.59,SSE,149,2.7,2.7,95,0.00,,---,0.00,VWS V14.01,2013-01-17 09:47:00,
2013-01-17 10:53:00,36.1,34.8,29.62,SSE,149,0.0,2.7,95,0.00,,---,0.00,VWS V14.01,2013-01-17 09:53:00,
2013-01-17 10:58:00,36.3,35.0,29.62,SSE,149,2.7,3.1,95,0.00,,---,0.00,VWS V14.01,2013-01-17 09:58:00,
2013-01-17 11:03:00,36.1,34.6,29.62,SSE,149,0.0,3.1,94,0.00,,---,0.00,VWS V14.01,2013-01-17 10:03:00,
2013-01-17 11:08:00,36.1,34.6,29.62,SSE,149,2.7,2.7,94,0.00,,---,0.00,VWS V14.01,2013-01-17 10:08:00,
2013-01-17 11:13:00,36.1,34.6,29.62,SSE,149,0.0,2.7,94,0.00,,---,0.00,VWS V14.01,2013-01-17 10:13:00,
2013-01-17 11:18:00,36.1,34.6,29.62,SSE,149,0.0,0.0,94,0.00,,---,0.00,VWS V14.01,2013-01-17 10:18:00,
2013-01-17 11:23:00,36.1,34.6,29.62,SSE,149,0.0,0.0,94,0.00,,---,0.00,VWS V14.01,2013-01-17 10:23:00,
2013-01-17 11:28:00,36.1,34.6,29.62,SSE,149,0.0,0.0,94,0.00,,---,0.00,VWS V14.01,2013-01-17 10:28:00,
2013-01-17 11:33:00,36.1,34.6,29.62,SSE,149,0.0,3.1,94,0.00,,---,0.00,VWS V14.01,2013-01-17 10:33:00,
2013-01-17 11:38:00,36.1,34.6,29.62,SSE,149,0.0,3.1,94,0.00,,---,0.00,VWS V14.01,2013-01-17 10:38:00,
2013-01-17 11:43:00,36.1,34.6,29.62,SSE,149,0.0,0.0,94,0.00,,---,0.00,VWS V14.01,2013-01-17 10:43:00,
2013-01-17 11:48:00,36.3,34.8,29.62,SSE,149,0.0,2.7,94,0.00,,---,0.00,VWS V14.01,2013-01-17 10:48:00,
2013-01-17 11:53:00,36.5,34.7,29.62,SSE,149,3.1,3.6,93,0.00,,---,0.00,VWS V14.01,2013-01-17 10:53:00,
2013-01-17 11:58:00,36.7,34.8,29.62,SSE,149,0.0,0.0,93,0.00,,---,0.00,VWS V14.01,2013-01-17 10:58:00,
2013-01-17 12:03:00,36.7,34.8,29.62,WSW,250,0.0,4.0,93,0.00,,---,0.00,VWS V14.01,2013-01-17 11:03:00,
2013-01-17 12:08:00,36.7,34.8,29.62,WSW,250,3.1,3.6,93,0.00,,---,0.00,VWS V14.01,2013-01-17 11:08:00,
2013-01-17 12:13:00,36.7,34.8,29.62,WSW,250,0.0,0.0,93,0.00,,---,0.00,VWS V14.01,2013-01-17 11:13:00,
2013-01-17 12:18:00,36.7,34.8,29.62,WSW,250,0.0,0.0,93,0.00,,---,0.00,VWS V14.01,2013-01-17 11:18:00,
2013-01-17 12:23:00,36.5,34.7,29.62,WSW,250,0.0,0.0,93,0.00,,---,0.00,VWS V14.01,2013-01-17 11:23:00,
2013-01-17 12:28:00,36.5,34.7,29.62,WSW,250,2.7,2.7,93,0.00,,---,0.00,VWS V14.01,2013-01-17 11:28:00,
2013-01-17 12:33:00,36.5,34.7,29.62,WSW,250,2.7,3.6,93,0.00,,---,0.00,VWS V14.01,2013-01-17 11:33:00,
2013-01-17 12:38:00,36.5,34.7,29.62,WSW,250,0.0,0.0,93,0.00,,---,0.00,VWS V14.01,2013-01-17 11:38:00,
2013-01-17 12:43:00,36.5,34.4,29.62,WSW,250,0.0,3.1,92,0.00,,---,0.00,VWS V14.01,2013-01-17 11:43:00,
2013-01-17 12:48:00,36.5,34.7,29.62,WSW,250,0.0,2.7,93,0.00,,---,0.00,VWS V14.01,2013-01-17 11:48:00,
2013-01-17 12:53:00,36.3,34.2,29.62,WSW,250,0.0,0.0,92,0.00,,---,0.00,VWS V14.01,2013-01-17 11:53:00,
2013-01-17 12:58:00,36.3,34.2,29.62,WSW,250,0.0,0.0,92,0.00,,---,0.00,VWS V14.01,2013-01-17 11:58:00,
2013-01-17 13:03:00,36.1,34.0,29.62,WSW,250,0.0,0.0,92,0.00,,---,0.00,VWS V14.01,2013-01-17 12:03:00,
2013-01-17 13:08:00,36.1,34.0,29.62,WSW,250,0.0,0.0,92,0.00,,---,0.00,VWS V14.01,2013-01-17 12:08:00,
2013-01-17 13:13:00,36.1,34.0,29.62,WSW,250,3.6,3.6,92,0.00,,---,0.00,VWS V14.01,2013-01-17 12:13:00,
2013-01-17 13:18:00,36.1,34.0,29.62,WSW,250,2.7,3.6,92,0.00,,---,0.00,VWS V14.01,2013-01-17 12:18:00,
2013-01-17 13:23:00,35.8,33.7,29.62,WSW,250,2.7,3.1,92,0.00,,---,0.00,VWS V14.01,2013-01-17 12:23:00,
2013-01-17 13:28:00,35.8,33.7,29.62,WSW,250,3.6,3.6,92,0.00,,---,0.00,VWS V14.01,2013-01-17 12:28:00,
2013-01-17 13:33:00,35.8,33.7,29.62,SSW,196,0.0,0.0,92,0.00,,---,0.00,VWS V14.01,2013-01-17 12:33:00,
2013-01-17 13:38:00,35.6,33.5,29.59,SSW,196,0.0,2.7,92,0.00,,---,0.00,VWS V14.01,2013-01-17 12:38:00,
2013-01-17 13:43:00,35.6,33.5,29.59,SSW,196,3.6,4.0,92,0.00,,---,0.00,VWS V14.01,2013-01-17 12:43:00,
2013-01-17 13:48:00,35.8,33.7,29.59,SSW,196,2.7,3.1,92,0.00,,---,0.00,VWS V14.01,2013-01-17 12:48:00,
2013-01-17 13:53:00,35.6,33.5,29.59,ESE,121,3.1,4.0,92,0.00,,---,0.00,VWS V14.01,2013-01-17 12:53:00,
2013-01-17 13:58:00,35.6,33.5,29.59,ESE,121,2.7,3.6,92,0.00,,---,0.00,VWS V14.01,2013-01-17 12:58:00,
2013-01-17 14:03:00,35.6,33.5,29.59,NNW,331,3.1,4.0,92,0.00,,---,0.00,VWS V14.01,2013-01-17 13:03:00,
2013-01-17 14:08:00,35.4,33.3,29.62,NNW,330,0.0,2.7,92,0.00,,---,0.00,VWS V14.01,2013-01-17 13:08:00,
2013-01-17 14:13:00,35.6,33.5,29.62,NNW,330,0.0,2.7,92,0.00,,---,0.00,VWS V14.01,2013-01-17 13:13:00,
2013-01-17 14:18:00,35.6,33.5,29.62,NNW,330,0.0,2.7,92,0.00,,---,0.00,VWS V14.01,2013-01-17 13:18:00,
2013-01-17 14:23:00,35.6,33.5,29.62,NNW,330,0.0,0.0,92,0.00,,---,0.00,VWS V14.01,2013-01-17 13:23:00,
2013-01-17 14:28:00,35.8,33.7,29.62,NNW,330,0.0,0.0,92,0.00,,---,0.00,VWS V14.01,2013-01-17 13:28:00,
2013-01-17 14:33:00,35.8,33.7,29.62,NNW,330,3.1,3.1,92,0.00,,---,0.00,VWS V14.01,2013-01-17 13:33:00,
2013-01-17 14:38:00,35.6,33.5,29.62,West,276,4.0,4.0,92,0.00,,---,0.00,VWS V14.01,2013-01-17 13:38:00,
2013-01-17 14:43:00,35.6,33.5,29.62,NW,304,0.0,4.9,92,0.00,,---,0.00,VWS V14.01,2013-01-17 13:43:00,
2013-01-17 14:48:00,36.3,34.5,29.62,NW,304,0.0,0.0,93,0.00,,---,0.00,VWS V14.01,2013-01-17 13:48:00,
2013-01-17 14:53:00,36.3,34.5,29.62,NW,304,2.7,2.7,93,0.00,,---,0.00,VWS V14.01,2013-01-17 13:53:00,
2013-01-17 14:58:00,35.8,33.7,29.62,NW,304,0.0,0.0,92,0.00,,---,0.00,VWS V14.01,2013-01-17 13:58:00,
2013-01-17 15:03:00,35.6,33.5,29.62,NW,304,0.0,0.0,92,0.00,,---,0.00,VWS V14.01,2013-01-17 14:03:00,
2013-01-17 15:08:00,35.4,33.3,29.62,NW,304,0.0,0.0,92,0.00,,---,0.00,VWS V14.01,2013-01-17 14:08:00,
2013-01-17 15:13:00,35.4,33.3,29.62,NW,304,0.0,0.0,92,0.00,,---,0.00,VWS V14.01,2013-01-17 14:13:00,
2013-01-17 15:18:00,35.1,33.0,29.62,NW,304,0.0,0.0,92,0.00,,---,0.00,VWS V14.01,2013-01-17 14:18:00,
2013-01-17 15:23:00,35.1,33.0,29.62,NW,304,0.0,2.7,92,0.00,,---,0.00,VWS V14.01,2013-01-17 14:23:00,
2013-01-17 15:28:00,35.1,33.0,29.62,NW,304,2.7,3.6,92,0.00,,---,0.00,VWS V14.01,2013-01-17 14:28:00,
2013-01-17 15:33:00,35.1,33.2,29.62,NW,304,0.0,0.0,93,0.00,,---,0.00,VWS V14.01,2013-01-17 14:33:00,
2013-01-17 15:38:00,34.9,33.1,29.62,NW,304,3.1,3.1,93,0.00,,---,0.00,VWS V14.01,2013-01-17 14:38:00,
2013-01-17 15:43:00,35.1,33.2,29.62,NW,304,3.1,3.1,93,0.00,,---,0.00,VWS V14.01,2013-01-17 14:43:00,
2013-01-17 15:48:00,35.2,33.4,29.62,NW,304,3.1,3.1,93,0.00,,---,0.00,VWS V14.01,2013-01-17 14:48:00,
2013-01-17 15:53:00,35.1,33.2,29.62,NW,304,4.0,4.0,93,0.00,,---,0.00,VWS V14.01,2013-01-17 14:53:00,
2013-01-17 15:58:00,35.1,33.2,29.62,NW,304,3.1,3.6,93,0.00,,---,0.00,VWS V14.01,2013-01-17 14:58:00,
2013-01-17 16:03:00,35.1,33.2,29.62,NW,304,2.7,3.1,93,0.00,,---,0.00,VWS V14.01,2013-01-17 15:03:00,
2013-01-17 16:08:00,35.2,33.4,29.62,NW,304,3.1,3.1,93,0.00,,---,0.00,VWS V14.01,2013-01-17 15:08:00,
2013-01-17 16:13:00,35.2,33.4,29.62,NW,304,3.1,4.0,93,0.00,,---,0.00,VWS V14.01,2013-01-17 15:13:00,
2013-01-17 16:18:00,35.1,33.2,29.62,NW,304,4.0,4.9,93,0.00,,---,0.00,VWS V14.01,2013-01-17 15:18:00,
2013-01-17 16:23:00,34.9,33.1,29.62,WNW,295,0.0,0.0,93,0.00,,---,0.00,VWS V14.01,2013-01-17 15:23:00,
2013-01-17 16:28:00,34.9,33.1,29.62,WNW,296,2.7,4.5,93,0.00,,---,0.00,VWS V14.01,2013-01-17 15:28:00,
2013-01-17 16:33:00,34.7,33.2,29.62,WNW,287,3.1,4.9,94,0.00,,---,0.00,VWS V14.01,2013-01-17 15:33:00,
2013-01-17 16:38:00,34.9,33.3,29.62,WNW,287,4.5,5.4,94,0.00,,---,0.00,VWS V14.01,2013-01-17 15:38:00,
2013-01-17 16:43:00,35.1,33.5,29.62,West,277,3.6,5.4,94,0.00,,---,0.00,VWS V14.01,2013-01-17 15:43:00,
2013-01-17 16:48:00,35.1,33.5,29.62,WNW,287,4.0,4.5,94,0.00,,---,0.00,VWS V14.01,2013-01-17 15:48:00,
2013-01-17 16:53:00,34.9,33.3,29.62,WNW,297,0.0,3.1,94,0.00,,---,0.00,VWS V14.01,2013-01-17 15:53:00,
2013-01-17 16:58:00,34.9,33.3,29.62,WNW,297,0.0,3.6,94,0.00,,---,0.00,VWS V14.01,2013-01-17 15:58:00,
2013-01-17 17:03:00,34.7,33.2,29.62,WNW,297,0.0,4.0,94,0.00,,---,0.00,VWS V14.01,2013-01-17 16:03:00,
2013-01-17 17:08:00,34.5,33.0,29.62,WNW,297,0.0,0.0,94,0.00,,---,0.00,VWS V14.01,2013-01-17 16:08:00,
2013-01-17 17:13:00,34.5,33.0,29.62,WNW,297,3.1,3.1,94,0.00,,---,0.00,VWS V14.01,2013-01-17 16:13:00,
2013-01-17 17:18:00,34.7,33.2,29.62,WNW,297,0.0,0.0,94,0.00,,---,0.00,VWS V14.01,2013-01-17 16:18:00,
2013-01-17 17:23:00,34.9,33.3,29.62,WNW,297,0.0,0.0,94,0.00,,---,0.00,VWS V14.01,2013-01-17 16:23:00,
2013-01-17 17:28:00,34.9,33.6,29.62,WNW,297,0.0,0.0,95,0.00,,---,0.00,VWS V14.01,2013-01-17 16:28:00,
2013-01-17 17:33:00,35.1,33.8,29.62,WNW,297,0.0,0.0,95,0.00,,---,0.00,VWS V14.01,2013-01-17 16:33:00,
2013-01-17 17:38:00,34.9,33.6,29.62,WNW,297,0.0,0.0,95,0.00,,---,0.00,VWS V14.01,2013-01-17 16:38:00,
2013-01-17 17:43:00,34.9,33.3,29.62,WNW,297,0.0,0.0,94,0.00,,---,0.00,VWS V14.01,2013-01-17 16:43:00,
2013-01-17 17:48:00,34.9,33.6,29.62,WNW,297,2.7,3.1,95,0.00,,---,0.00,VWS V14.01,2013-01-17 16:48:00,
2013-01-17 17:53:00,34.9,33.6,29.65,WNW,297,0.0,0.0,95,0.00,,---,0.00,VWS V14.01,2013-01-17 16:53:00,
2013-01-17 17:58:00,34.9,33.6,29.65,WNW,297,2.7,2.7,95,0.00,,---,0.00,VWS V14.01,2013-01-17 16:58:00,
2013-01-17 18:03:00,35.1,33.8,29.65,WNW,297,0.0,0.0,95,0.00,,---,0.00,VWS V14.01,2013-01-17 17:03:00,
2013-01-17 18:08:00,34.9,33.6,29.65,WNW,297,0.0,0.0,95,0.00,,---,0.00,VWS V14.01,2013-01-17 17:08:00,
2013-01-17 18:13:00,35.1,33.8,29.65,WNW,297,3.1,4.0,95,0.00,,---,0.00,VWS V14.01,2013-01-17 17:13:00,
2013-01-17 18:18:00,34.9,33.6,29.65,WNW,297,3.1,3.6,95,0.00,,---,0.00,VWS V14.01,2013-01-17 17:18:00,
2013-01-17 18:23:00,34.9,33.6,29.65,WNW,297,3.1,4.0,95,0.00,,---,0.00,VWS V14.01,2013-01-17 17:23:00,
2013-01-17 18:28:00,34.9,33.6,29.65,WNW,297,0.0,2.7,95,0.00,,---,0.00,VWS V14.01,2013-01-17 17:28:00,
2013-01-17 18:33:00,35.1,33.8,29.65,WNW,297,0.0,0.0,95,0.00,,---,0.00,VWS V14.01,2013-01-17 17:33:00,
2013-01-17 18:38:00,35.1,33.8,29.65,WNW,297,0.0,0.0,95,0.00,,---,0.00,VWS V14.01,2013-01-17 17:38:00,
2013-01-17 18:43:00,35.1,33.8,29.65,WNW,297,2.7,3.1,95,0.00,,---,0.00,VWS V14.01,2013-01-17 17:43:00,
2013-01-17 18:48:00,35.1,33.8,29.65,WNW,299,4.9,4.9,95,0.00,,---,0.00,VWS V14.01,2013-01-17 17:48:00,
2013-01-17 18:53:00,35.1,33.8,29.65,WNW,299,4.0,4.5,95,0.00,,---,0.00,VWS V14.01,2013-01-17 17:53:00,
2013-01-17 18:58:00,35.1,33.8,29.65,WNW,299,4.0,4.0,95,0.00,,---,0.00,VWS V14.01,2013-01-17 17:58:00,
2013-01-17 19:03:00,35.1,33.8,29.65,WNW,299,3.6,3.6,95,0.00,,---,0.00,VWS V14.01,2013-01-17 18:03:00,
2013-01-17 19:08:00,35.2,34.0,29.65,WNW,300,3.6,3.6,95,0.00,,---,0.00,VWS V14.01,2013-01-17 18:08:00,
2013-01-17 19:13:00,35.4,34.1,29.65,WNW,288,2.7,4.5,95,0.00,,---,0.00,VWS V14.01,2013-01-17 18:13:00,
2013-01-17 19:18:00,35.4,34.1,29.65,WNW,288,0.0,2.7,95,0.00,,---,0.00,VWS V14.01,2013-01-17 18:18:00,
2013-01-17 19:23:00,35.4,34.1,29.65,WNW,288,0.0,0.0,95,0.00,,---,0.00,VWS V14.01,2013-01-17 18:23:00,
2013-01-17 19:28:00,35.4,33.9,29.65,WNW,288,3.6,3.6,94,0.00,,---,0.00,VWS V14.01,2013-01-17 18:28:00,
2013-01-17 19:33:00,35.4,33.9,29.65,WNW,288,0.0,0.0,94,0.00,,---,0.00,VWS V14.01,2013-01-17 18:33:00,
2013-01-17 19:38:00,35.4,33.9,29.68,WNW,288,0.0,0.0,94,0.00,,---,0.00,VWS V14.01,2013-01-17 18:38:00,
2013-01-17 19:43:00,35.6,34.0,29.68,WNW,288,2.7,3.6,94,0.00,,---,0.00,VWS V14.01,2013-01-17 18:43:00,
2013-01-17 19:48:00,35.4,33.9,29.68,WNW,288,0.0,0.0,94,0.00,,---,0.00,VWS V14.01,2013-01-17 18:48:00,
2013-01-17 19:53:00,35.4,33.9,29.68,WNW,288,4.0,4.5,94,0.00,,---,0.00,VWS V14.01,2013-01-17 18:53:00,
2013-01-17 19:58:00,35.4,33.9,29.68,WNW,288,4.5,4.5,94,0.00,,---,0.00,VWS V14.01,2013-01-17 18:58:00,
2013-01-17 20:03:00,35.4,33.9,29.68,WNW,288,3.1,3.6,94,0.00,,---,0.00,VWS V14.01,2013-01-17 19:03:00,
2013-01-17 20:08:00,35.4,33.9,29.68,WNW,288,0.0,3.1,94,0.00,,---,0.00,VWS V14.01,2013-01-17 19:08:00,
2013-01-17 20:13:00,35.4,33.9,29.68,WNW,288,2.7,3.1,94,0.00,,---,0.00,VWS V14.01,2013-01-17 19:13:00,
2013-01-17 20:18:00,35.4,33.9,29.68,WNW,288,0.0,0.0,94,0.00,,---,0.00,VWS V14.01,2013-01-17 19:18:00,
2013-01-17 20:24:00,35.4,33.9,29.68,WNW,288,0.0,0.0,94,0.00,,---,0.00,VWS V14.01,2013-01-17 19:24:00,
2013-01-17 20:29:00,35.2,33.7,29.68,WNW,288,0.0,0.0,94,0.00,,---,0.00,VWS V14.01,2013-01-17 19:29:00,
2013-01-17 20:34:00,35.2,33.7,29.68,WNW,288,0.0,0.0,94,0.00,,---,0.00,VWS V14.01,2013-01-17 19:34:00,
2013-01-17 20:39:00,35.1,33.5,29.68,WNW,288,0.0,0.0,94,0.00,,---,0.00,VWS V14.01,2013-01-17 19:39:00,
2013-01-17 20:44:00,34.9,33.3,29.68,WNW,288,0.0,0.0,94,0.00,,---,0.00,VWS V14.01,2013-01-17 19:44:00,
2013-01-17 20:49:00,34.9,33.3,29.68,WNW,288,4.0,4.5,94,0.00,,---,0.00,VWS V14.01,2013-01-17 19:49:00,
2013-01-17 20:54:00,35.1,33.5,29.68,WNW,288,3.6,3.6,94,0.00,,---,0.00,VWS V14.01,2013-01-17 19:54:00,
2013-01-17 20:59:00,34.9,33.3,29.68,WNW,288,2.7,2.7,94,0.00,,---,0.00,VWS V14.01,2013-01-17 19:59:00,
2013-01-17 21:04:00,34.7,33.2,29.68,WNW,288,3.1,3.6,94,0.00,,---,0.00,VWS V14.01,2013-01-17 20:04:00,
2013-01-17 21:09:00,34.5,33.0,29.68,WNW,288,0.0,0.0,94,0.00,,---,0.00,VWS V14.01,2013-01-17 20:09:00,
2013-01-17 21:14:00,34.5,33.0,29.68,WNW,288,0.0,0.0,94,0.00,,---,0.00,VWS V14.01,2013-01-17 20:14:00,
2013-01-17 21:19:00,34.5,33.0,29.68,South,177,3.6,4.0,94,0.00,,---,0.00,VWS V14.01,2013-01-17 20:19:00,
2013-01-17 21:24:00,34.3,32.8,29.68,South,177,3.1,3.1,94,0.00,,---,0.00,VWS V14.01,2013-01-17 20:24:00,
2013-01-17 21:29:00,34.3,33.1,29.68,South,177,3.6,3.6,95,0.00,,---,0.00,VWS V14.01,2013-01-17 20:29:00,
2013-01-17 21:34:00,34.5,33.2,29.68,South,177,2.7,3.1,95,0.00,,---,0.00,VWS V14.01,2013-01-17 20:34:00,
2013-01-17 21:39:00,34.3,33.1,29.68,South,177,0.0,3.1,95,0.00,,---,0.00,VWS V14.01,2013-01-17 20:39:00,
2013-01-17 21:44:00,34.3,33.1,29.68,NNW,332,4.9,4.9,95,0.00,,---,0.00,VWS V14.01,2013-01-17 20:44:00,
2013-01-17 21:49:00,34.3,33.1,29.68,NNW,333,4.0,4.0,95,0.00,,---,0.00,VWS V14.01,2013-01-17 20:49:00,
2013-01-17 21:54:00,34.3,33.1,29.68,NW,324,3.1,4.9,95,0.00,,---,0.00,VWS V14.01,2013-01-17 20:54:00,
2013-01-17 21:59:00,34.3,33.1,29.68,NNW,328,3.6,4.0,95,0.00,,---,0.00,VWS V14.01,2013-01-17 20:59:00,
2013-01-17 22:04:00,34.3,33.1,29.68,NW,324,4.0,4.5,95,0.00,,---,0.00,VWS V14.01,2013-01-17 21:04:00,
2013-01-17 22:09:00,34.3,33.1,29.68,NNW,330,4.5,4.5,95,0.00,,---,0.00,VWS V14.01,2013-01-17 21:09:00,
2013-01-17 22:14:00,34.3,33.1,29.68,NNW,331,3.6,5.4,95,0.00,,---,0.00,VWS V14.01,2013-01-17 21:14:00,
2013-01-17 22:19:00,34.3,33.1,29.68,NNW,339,3.1,5.8,95,0.00,,---,0.00,VWS V14.01,2013-01-17 21:19:00,
2013-01-17 22:24:00,34.3,33.1,29.68,NNW,334,4.9,4.9,95,0.00,,---,0.00,VWS V14.01,2013-01-17 21:24:00,
2013-01-17 22:29:00,34.3,33.1,29.68,NNW,335,4.9,4.9,95,0.00,,---,0.00,VWS V14.01,2013-01-17 21:29:00,
2013-01-17 22:34:00,34.3,33.1,29.68,NNW,333,4.0,5.8,95,0.00,,---,0.00,VWS V14.01,2013-01-17 21:34:00,
2013-01-17 22:39:00,34.3,33.1,29.65,NNW,330,6.7,6.7,95,0.00,,---,0.00,VWS V14.01,2013-01-17 21:39:00,
2013-01-17 22:44:00,34.3,33.1,29.65,North,351,4.9,7.4,95,0.00,,---,0.00,VWS V14.01,2013-01-17 21:44:00,
2013-01-17 22:49:00,34.3,33.1,29.65,NW,323,4.9,4.9,95,0.00,,---,0.00,VWS V14.01,2013-01-17 21:49:00,
2013-01-17 22:54:00,34.3,33.1,29.65,North,351,5.8,5.8,95,0.00,,---,0.00,VWS V14.01,2013-01-17 21:54:00,
2013-01-17 22:59:00,34.3,33.1,29.65,NNW,341,4.5,4.9,95,0.00,,---,0.00,VWS V14.01,2013-01-17 21:59:00,
2013-01-17 23:04:00,34.3,33.1,29.65,North,356,3.1,3.6,95,0.00,,---,0.00,VWS V14.01,2013-01-17 22:04:00,
2013-01-17 23:09:00,34.3,33.1,29.65,NNW,333,2.7,4.0,95,0.00,,---,0.00,VWS V14.01,2013-01-17 22:09:00,
2013-01-17 23:14:00,34.5,33.2,29.65,NW,321,4.9,4.9,95,0.00,,---,0.00,VWS V14.01,2013-01-17 22:14:00,
2013-01-17 23:19:00,34.7,33.4,29.65,WNW,302,4.5,4.9,95,0.00,,---,0.00,VWS V14.01,2013-01-17 22:19:00,
2013-01-17 23:24:00,34.9,33.6,29.65,WNW,290,4.9,6.3,95,0.00,,---,0.00,VWS V14.01,2013-01-17 22:24:00,
2013-01-17 23:29:00,35.1,33.8,29.65,WNW,294,5.8,6.9,95,0.00,,---,0.00,VWS V14.01,2013-01-17 22:29:00,
2013-01-17 23:34:00,35.1,33.8,29.65,WNW,296,5.8,5.8,95,0.00,,---,0.00,VWS V14.01,2013-01-17 22:34:00,
2013-01-17 23:39:00,35.1,33.8,29.65,WNW,290,5.8,6.7,95,0.00,,---,0.00,VWS V14.01,2013-01-17 22:39:00,
2013-01-17 23:44:00,35.2,34.0,29.65,NW,317,3.1,4.5,95,0.00,,---,0.00,VWS V14.01,2013-01-17 22:44:00,
2013-01-17 23:49:00,35.2,34.0,29.65,NNW,340,5.8,5.8,95,0.00,,---,0.00,VWS V14.01,2013-01-17 22:49:00,
2013-01-17 23:54:00,35.2,33.7,29.65,NW,307,5.4,5.4,94,0.00,,---,0.00,VWS V14.01,2013-01-17 22:54:00,
2013-01-17 23:59:00,35.2,33.4,29.65,WNW,299,4.0,5.4,93,0.00,,---,0.00,VWS V14.01,2013-01-17 22:59:00,